Terminal Aerodrome Forecast
Issued by NWS

Home | Current Version | Previous Version | Text Only | Print | Product List | Glossary On
Versions: 1 2 3 4 5 6 7 8 9 10 11 12 13 14 15 16 17 18 19 20 21 22 23 24 25 26 27
000
FTUS44 KBMX 221100
TAFTOI
TAF
KTOI 221125Z 2212/2312 12003KT P6SM OVC006
     FM221400 13005KT P6SM VCSH SCT007 BKN015
     FM221700 13005KT 4SM SHRA VCTS SCT015CB BKN035
     FM222100 21005KT P6SM VCTS SCT025CB BKN040
     FM230300 00000KT 6SM BR BKN250
     FM230900 00000KT 4SM BR SCT007 SCT150=

USA.gov is the U.S. government's official web portal to all federal, state and local government web resources and services.